createdAt,value
2022-11-24T00:01:20.290Z,0.80
2022-11-24T00:03:57.204Z,1.00
2022-11-24T00:06:25.278Z,0.98
2022-11-24T00:08:53.904Z,0.87
2022-11-24T00:11:24.043Z,1.20
2022-11-24T00:13:52.132Z,0.90
2022-11-24T00:16:23.219Z,0.98
2022-11-24T00:18:53.315Z,1.25
2022-11-24T00:21:21.887Z,1.30
2022-11-24T00:23:50.743Z,1.10
2022-11-24T00:26:24.012Z,1.20
2022-11-24T00:28:54.858Z,1.30
2022-11-24T00:31:25.117Z,1.67
2022-11-24T00:33:55.479Z,1.20
2022-11-24T00:36:25.717Z,1.23
2022-11-24T00:38:55.618Z,1.67
2022-11-24T00:41:24.297Z,1.52
2022-11-24T00:43:52.922Z,1.40
2022-11-24T00:46:21.384Z,1.77
2022-11-24T00:48:49.130Z,1.20
2022-11-24T00:51:18.388Z,1.23
2022-11-24T00:53:46.428Z,1.25
2022-11-24T00:56:14.155Z,1.27
2022-11-24T00:58:42.264Z,1.00
2022-11-24T01:01:17.704Z,1.38
2022-11-24T01:03:46.884Z,1.10
2022-11-24T01:06:18.137Z,1.10
2022-11-24T01:08:46.580Z,1.10
2022-11-24T01:11:16.104Z,1.30
2022-11-24T01:13:46.564Z,1.13
2022-11-24T01:16:17.692Z,0.93
2022-11-24T01:18:45.755Z,0.88
2022-11-24T01:21:14.334Z,0.85
2022-11-24T01:23:41.971Z,1.03
2022-11-24T01:26:12.160Z,1.77
2022-11-24T01:28:46.302Z,1.02
2022-11-24T01:31:15.665Z,0.88
2022-11-24T01:33:43.529Z,1.17
2022-11-24T01:36:11.783Z,1.13
2022-11-24T01:38:39.406Z,1.08
2022-11-24T01:41:11.527Z,0.75
2022-11-24T01:43:39.741Z,0.75
2022-11-24T01:46:31.017Z,0.93
2022-11-24T01:49:21.965Z,0.70
2022-11-24T01:51:55.666Z,0.65
2022-11-24T01:54:36.491Z,0.98
2022-11-24T01:57:17.878Z,0.90
2022-11-24T01:59:49.434Z,0.88
2022-11-24T02:02:22.195Z,1.03
2022-11-24T02:04:51.245Z,0.90
2022-11-24T02:07:19.186Z,0.77
2022-11-24T02:09:55.127Z,1.10
2022-11-24T02:12:26.264Z,0.65
2022-11-24T02:14:56.083Z,0.50
2022-11-24T02:17:23.647Z,1.10
2022-11-24T02:20:08.105Z,1.38
2022-11-24T02:22:57.205Z,0.80
2022-11-24T02:25:46.395Z,0.50
2022-11-24T02:28:18.187Z,0.80
2022-11-24T02:30:46.201Z,0.88
2022-11-24T02:33:14.355Z,0.50
2022-11-24T02:35:42.534Z,0.73
2022-11-24T02:38:14.195Z,0.60
2022-11-24T02:40:46.685Z,0.60
2022-11-24T02:43:18.084Z,0.50
2022-11-24T02:45:45.802Z,0.50
2022-11-24T02:48:16.737Z,0.60
2022-11-24T02:50:44.539Z,0.82
2022-11-24T02:53:12.100Z,0.50
2022-11-24T02:55:39.755Z,0.80
2022-11-24T02:58:07.336Z,0.40
2022-11-24T03:00:34.915Z,0.90
2022-11-24T03:03:03.074Z,0.60
2022-11-24T03:05:31.137Z,0.80
2022-11-24T03:07:58.800Z,0.50
2022-11-24T03:10:26.535Z,0.60
2022-11-24T03:12:54.854Z,0.85
2022-11-24T03:15:23.872Z,0.60
2022-11-24T03:17:54.990Z,0.40
2022-11-24T03:20:23.124Z,0.70
2022-11-24T03:22:50.753Z,0.70
2022-11-24T03:25:18.957Z,0.57
2022-11-24T03:27:47.197Z,0.47
2022-11-24T03:30:15.569Z,1.10
2022-11-24T03:32:43.280Z,0.50
2022-11-24T03:35:10.951Z,0.80
2022-11-24T03:37:38.657Z,0.55
2022-11-24T03:40:07.051Z,0.60
2022-11-24T03:42:34.639Z,0.67
2022-11-24T03:45:29.831Z,0.50
2022-11-24T03:47:52.856Z,0.68
2022-11-24T03:50:20.420Z,0.80
2022-11-24T03:52:48.047Z,0.40
2022-11-24T03:55:15.693Z,0.57
2022-11-24T03:57:43.237Z,0.50
2022-11-24T04:00:12.046Z,0.80
2022-11-24T04:02:39.677Z,0.70
2022-11-24T04:05:07.931Z,0.50
2022-11-24T04:07:35.701Z,1.00
2022-11-24T04:10:03.799Z,0.73
2022-11-24T04:12:46.509Z,1.30
2022-11-24T04:15:19.900Z,0.70
2022-11-24T04:17:49.460Z,0.70
2022-11-24T04:20:17.898Z,1.10
2022-11-24T04:22:45.484Z,0.60
2022-11-24T04:25:13.325Z,1.15
2022-11-24T04:27:40.928Z,0.75
2022-11-24T04:30:08.908Z,0.70
2022-11-24T04:32:36.962Z,0.83
2022-11-24T04:35:05.141Z,0.80
2022-11-24T04:37:32.723Z,0.70
2022-11-24T04:40:00.419Z,0.57
2022-11-24T04:42:28.046Z,0.80
2022-11-24T04:44:55.779Z,0.80
2022-11-24T04:47:25.093Z,0.80
2022-11-24T04:49:53.466Z,0.60
2022-11-24T04:52:23.271Z,0.70
2022-11-24T04:54:51.385Z,0.70
2022-11-24T04:57:24.347Z,0.77
2022-11-24T04:59:52.988Z,1.00
2022-11-24T05:02:21.404Z,0.95
2022-11-24T05:04:49.014Z,0.85
2022-11-24T05:07:19.122Z,0.65
2022-11-24T05:10:06.155Z,0.80
2022-11-24T05:12:33.776Z,0.50
2022-11-24T05:15:02.585Z,0.88
2022-11-24T05:17:32.831Z,0.60
2022-11-24T05:20:00.932Z,0.70
2022-11-24T05:22:29.979Z,0.63
2022-11-24T05:24:58.098Z,0.95
2022-11-24T05:27:25.737Z,0.80
2022-11-24T05:29:53.302Z,0.70
2022-11-24T05:32:20.825Z,0.90
2022-11-24T05:34:48.431Z,0.80
2022-11-24T05:37:16.114Z,0.88
2022-11-24T05:39:43.685Z,0.82
2022-11-24T05:42:30.314Z,1.00
2022-11-24T05:44:57.897Z,0.90
2022-11-24T05:47:25.765Z,1.03
2022-11-24T05:49:53.389Z,0.80
2022-11-24T05:52:20.941Z,0.93
2022-11-24T05:54:48.513Z,0.90
2022-11-24T05:57:17.638Z,1.13
2022-11-24T05:59:45.572Z,0.80
2022-11-24T06:02:14.163Z,0.90
2022-11-24T06:04:41.915Z,0.77
2022-11-24T06:07:13.794Z,0.50
2022-11-24T06:09:42.965Z,0.70
2022-11-24T06:12:12.640Z,0.80
2022-11-24T06:14:40.763Z,1.75
2022-11-24T06:17:09.965Z,0.95
2022-11-24T06:19:41.738Z,0.82
2022-11-24T06:22:09.704Z,1.25
2022-11-24T06:24:37.360Z,0.80
2022-11-24T06:27:04.907Z,0.82
2022-11-24T06:29:32.444Z,1.30
2022-11-24T06:32:00.170Z,1.25
2022-11-24T06:34:27.764Z,0.93
2022-11-24T06:36:55.340Z,0.90
2022-11-24T06:39:22.865Z,1.00
2022-11-24T06:41:50.917Z,0.90
2022-11-24T06:44:19.166Z,1.73
2022-11-24T06:46:46.983Z,1.05
2022-11-24T06:49:14.763Z,1.27
2022-11-24T06:51:42.815Z,1.73
2022-11-24T06:54:14.039Z,0.95
2022-11-24T06:56:41.613Z,1.20
2022-11-24T06:59:17.612Z,1.75
2022-11-24T07:01:45.710Z,1.40
2022-11-24T07:04:13.744Z,1.70
2022-11-24T07:06:41.724Z,1.48
2022-11-24T07:09:11.999Z,1.20
2022-11-24T07:11:40.390Z,1.38
2022-11-24T07:14:08.613Z,0.90
2022-11-24T07:16:36.620Z,1.00
2022-11-24T07:19:04.606Z,1.17
2022-11-24T07:21:32.702Z,1.33
2022-11-24T07:24:00.492Z,1.42
2022-11-24T07:26:28.132Z,1.20
2022-11-24T07:28:55.678Z,1.30
2022-11-24T07:31:26.676Z,1.10
2022-11-24T07:33:55.600Z,1.10
2022-11-24T07:36:23.483Z,1.70
2022-11-24T07:38:51.257Z,1.30
2022-11-24T07:41:19.864Z,1.30
2022-11-24T07:43:48.560Z,1.80
2022-11-24T07:46:19.168Z,1.70
2022-11-24T07:48:47.182Z,1.10
2022-11-24T07:51:15.664Z,1.37
2022-11-24T07:53:43.843Z,1.02
2022-11-24T07:56:12.655Z,1.23
2022-11-24T07:58:40.203Z,1.13
2022-11-24T08:01:13.502Z,1.65
2022-11-24T08:03:42.571Z,1.40
2022-11-24T08:06:31.873Z,1.23
2022-11-24T08:08:58.756Z,1.10
2022-11-24T08:11:26.829Z,1.13
2022-11-24T08:13:54.409Z,1.23
2022-11-24T08:16:22.059Z,1.63
2022-11-24T08:18:51.779Z,1.95
2022-11-24T08:21:20.872Z,1.40
2022-11-24T08:23:49.210Z,1.77
2022-11-24T08:26:18.981Z,1.23
2022-11-24T08:28:47.921Z,1.20
2022-11-24T08:31:20.809Z,1.35
2022-11-24T08:33:48.992Z,1.55
2022-11-24T08:36:18.803Z,1.70
2022-11-24T08:38:49.908Z,1.50
2022-11-24T08:41:17.921Z,1.63
2022-11-24T08:43:45.501Z,1.40
2022-11-24T08:46:17.168Z,1.20
2022-11-24T08:48:50.244Z,1.23
2022-11-24T08:51:21.307Z,1.33
2022-11-24T08:53:49.049Z,1.60
2022-11-24T08:56:17.002Z,1.15
2022-11-24T08:58:48.458Z,1.60
2022-11-24T09:01:17.884Z,1.35
2022-11-24T09:03:50.668Z,1.75
2022-11-24T09:06:23.199Z,1.70
2022-11-24T09:08:55.679Z,1.25
2022-11-24T09:11:25.062Z,1.52
2022-11-24T09:13:53.878Z,1.70
2022-11-24T09:16:26.042Z,1.55
2022-11-24T09:18:59.720Z,1.87
2022-11-24T09:21:28.334Z,1.48
2022-11-24T09:23:56.093Z,1.45
2022-11-24T09:26:26.451Z,1.10
2022-11-24T09:28:55.702Z,1.75
2022-11-24T09:31:30.557Z,1.77
2022-11-24T09:33:59.567Z,1.45
2022-11-24T09:36:28.037Z,1.10
2022-11-24T09:38:55.936Z,1.55
2022-11-24T09:41:49.824Z,1.45
2022-11-24T09:44:26.893Z,1.93
2022-11-24T09:47:14.646Z,1.88
2022-11-24T09:49:54.456Z,1.75
2022-11-24T09:52:50.353Z,1.95
2022-11-24T09:55:42.289Z,2.05
2022-11-24T09:58:17.693Z,2.07
2022-11-24T10:00:48.751Z,1.63
2022-11-24T10:03:30.572Z,1.42
2022-11-24T10:05:59.528Z,1.70
2022-11-24T10:09:05.695Z,1.88
2022-11-24T10:11:42.380Z,1.80
2022-11-24T10:14:31.820Z,1.48
2022-11-24T10:17:21.575Z,1.15
2022-11-24T10:19:58.275Z,1.15
2022-11-24T10:23:04.297Z,1.75
2022-11-24T10:25:42.602Z,1.10
2022-11-24T10:28:14.798Z,1.35
2022-11-24T10:30:43.479Z,1.13
2022-11-24T10:33:28.706Z,1.77
2022-11-24T10:36:09.693Z,1.42
2022-11-24T10:38:56.756Z,1.80
2022-11-24T10:41:37.735Z,1.60
2022-11-24T10:44:05.337Z,1.73
2022-11-24T10:46:39.029Z,1.35
2022-11-24T10:49:07.047Z,1.48
2022-11-24T10:52:11.438Z,1.67
2022-11-24T10:54:56.163Z,1.45
2022-11-24T10:57:38.463Z,1.85
2022-11-24T11:00:21.392Z,1.10
2022-11-24T11:02:50.743Z,1.25
2022-11-24T11:05:31.823Z,1.10
2022-11-24T11:08:14.452Z,1.30
2022-11-24T11:10:46.345Z,1.42
2022-11-24T11:13:28.498Z,1.05
2022-11-24T11:15:57.911Z,1.10
2022-11-24T11:18:34.567Z,1.20
2022-11-24T11:21:03.850Z,0.90
2022-11-24T11:23:34.629Z,1.17
2022-11-24T11:26:38.725Z,1.60
2022-11-24T11:34:55.540Z,1.48
2022-11-24T11:37:27.796Z,1.52
2022-11-24T11:39:56.058Z,1.38
2022-11-24T11:43:01.852Z,1.00
2022-11-24T11:45:21.062Z,1.00
2022-11-24T11:47:51.248Z,1.25
2022-11-24T11:50:25.805Z,0.90
2022-11-24T11:53:10.659Z,1.25
2022-11-24T11:55:54.835Z,1.00
2022-11-24T11:58:34.598Z,1.33
2022-11-24T12:01:23.362Z,1.05
2022-11-24T12:04:09.374Z,0.77
2022-11-24T12:06:54.012Z,1.27
2022-11-24T12:09:49.831Z,1.10
2022-11-24T12:12:59.739Z,0.83
2022-11-24T12:15:32.634Z,1.00
2022-11-24T12:18:40.304Z,1.13
2022-11-24T12:21:53.569Z,1.27
2022-11-24T12:24:33.229Z,1.08
2022-11-24T12:27:10.088Z,1.10
2022-11-24T12:29:48.288Z,1.65
2022-11-24T12:32:52.860Z,1.58
2022-11-24T12:35:43.714Z,1.50
2022-11-24T12:38:45.379Z,1.35
2022-11-24T12:41:40.316Z,1.50
2022-11-24T12:44:11.560Z,0.90
2022-11-24T12:46:59.420Z,1.67
2022-11-24T12:49:45.714Z,1.92
2022-11-24T12:52:25.461Z,1.50
2022-11-24T12:54:54.475Z,0.90
2022-11-24T12:57:41.349Z,1.73
2022-11-24T13:00:57.125Z,1.30
2022-11-24T13:03:39.888Z,1.13
2022-11-24T13:06:25.685Z,0.90
2022-11-24T13:08:53.663Z,1.17
2022-11-24T13:11:21.138Z,1.20
2022-11-24T13:14:06.240Z,0.70
2022-11-24T13:16:37.213Z,1.20
2022-11-24T13:19:29.133Z,0.80
2022-11-24T13:22:13.891Z,0.70
2022-11-24T13:24:43.173Z,0.50
2022-11-24T13:27:13.517Z,0.40
2022-11-24T13:29:46.497Z,0.45
2022-11-24T13:32:17.819Z,0.50
2022-11-24T13:34:55.304Z,0.47
2022-11-24T13:37:31.699Z,0.20
2022-11-24T13:40:23.192Z,0.10
2022-11-24T13:42:57.683Z,0.20
2022-11-24T13:45:40.302Z,0.20
2022-11-24T13:48:21.444Z,0.10
2022-11-24T13:50:49.631Z,0.20
2022-11-24T13:53:38.550Z,0.20
2022-11-24T13:56:22.723Z,0.20
2022-11-24T13:58:53.967Z,0.30
2022-11-24T14:01:32.527Z,0.20
2022-11-24T14:04:35.232Z,0.20
2022-11-24T14:07:09.506Z,0.40
2022-11-24T14:09:43.701Z,0.50
2022-11-24T14:12:27.978Z,0.25
2022-11-24T14:15:23.598Z,0.33
2022-11-24T14:17:51.338Z,0.30
2022-11-24T14:20:28.312Z,0.50
2022-11-24T14:22:56.245Z,0.75
2022-11-24T14:25:31.031Z,0.60
2022-11-24T14:28:00.425Z,0.33
2022-11-24T14:30:28.374Z,0.60
2022-11-24T14:33:01.540Z,0.50
2022-11-24T14:35:31.808Z,0.80
2022-11-24T14:38:04.794Z,0.60
2022-11-24T14:40:54.737Z,0.70
2022-11-24T14:43:31.554Z,0.80
2022-11-24T14:46:09.942Z,0.50
2022-11-24T14:48:48.765Z,0.57
2022-11-24T14:51:25.274Z,0.70
2022-11-24T14:53:58.020Z,0.90
2022-11-24T14:56:50.721Z,0.80
2022-11-24T14:59:24.163Z,0.70
2022-11-24T15:01:52.490Z,0.65
2022-11-24T15:04:54.185Z,0.60
2022-11-24T15:07:24.184Z,0.80
2022-11-24T15:09:58.527Z,0.80
2022-11-24T15:12:37.903Z,0.80
2022-11-24T15:15:15.102Z,0.50
2022-11-24T15:17:53.218Z,0.80
2022-11-24T15:20:41.788Z,0.90
2022-11-24T15:23:12.136Z,0.80
2022-11-24T15:25:39.751Z,0.90
2022-11-24T15:28:08.722Z,0.65
2022-11-24T15:30:37.550Z,1.10
2022-11-24T15:33:14.639Z,0.83
2022-11-24T15:35:43.141Z,0.80
2022-11-24T15:38:10.779Z,1.10
2022-11-24T15:40:39.741Z,0.63
2022-11-24T15:43:32.098Z,0.93
2022-11-24T15:46:01.395Z,0.70
2022-11-24T15:48:29.631Z,0.55
2022-11-24T15:50:58.920Z,0.90
2022-11-24T15:53:32.183Z,0.88
2022-11-24T15:56:01.718Z,0.70
2022-11-24T15:58:29.361Z,0.90
2022-11-24T16:00:57.124Z,0.95
2022-11-24T16:03:46.491Z,0.68
2022-11-24T16:06:20.586Z,0.80
2022-11-24T16:08:51.194Z,1.00
2022-11-24T16:11:18.765Z,1.13
2022-11-24T16:13:51.930Z,1.40
2022-11-24T16:16:22.732Z,1.13
2022-11-24T16:18:50.747Z,1.20
2022-11-24T16:21:18.328Z,1.35
2022-11-24T16:23:46.665Z,1.00
2022-11-24T16:26:14.369Z,1.13
2022-11-24T16:28:42.915Z,0.90
2022-11-24T16:31:10.473Z,1.17
2022-11-24T16:33:40.800Z,1.45
2022-11-24T16:36:08.840Z,1.20
2022-11-24T16:38:36.440Z,1.38
2022-11-24T16:41:04.100Z,1.10
2022-11-24T16:43:31.701Z,1.10
2022-11-24T16:46:23.000Z,1.40
2022-11-24T16:48:53.031Z,1.03
2022-11-24T16:51:22.600Z,1.05
2022-11-24T16:53:58.561Z,0.98
2022-11-24T16:56:27.564Z,1.35
2022-11-24T16:58:55.417Z,1.20
2022-11-24T17:01:23.253Z,1.40
2022-11-24T17:03:50.922Z,1.83
2022-11-24T17:06:19.137Z,0.95
2022-11-24T17:08:47.694Z,1.25
2022-11-24T17:11:16.617Z,0.77
2022-11-24T17:13:45.694Z,1.47
2022-11-24T17:16:16.554Z,1.40
2022-11-24T17:18:44.763Z,1.30
2022-11-24T17:21:14.862Z,1.10
2022-11-24T17:23:42.623Z,0.88
2022-11-24T17:26:18.931Z,1.10
2022-11-24T17:28:46.622Z,1.35
2022-11-24T17:31:17.182Z,1.38
2022-11-24T17:33:44.849Z,1.10
2022-11-24T17:36:12.460Z,1.17
2022-11-24T17:38:40.076Z,1.33
2022-11-24T17:41:07.892Z,2.00
2022-11-24T17:43:35.563Z,0.90
2022-11-24T17:46:04.404Z,1.17
2022-11-24T17:48:32.830Z,1.17
2022-11-24T17:51:27.404Z,1.40
2022-11-24T17:53:57.374Z,2.05
2022-11-24T17:56:27.288Z,1.75
2022-11-24T17:58:59.742Z,1.63
2022-11-24T18:01:32.433Z,1.83
2022-11-24T18:04:00.187Z,1.87
2022-11-24T18:06:28.982Z,1.48
2022-11-24T18:08:57.822Z,2.15
2022-11-24T18:11:31.492Z,1.88
2022-11-24T18:14:02.530Z,1.67
2022-11-24T18:16:35.055Z,1.70
2022-11-24T18:19:09.326Z,1.40
2022-11-24T18:21:41.882Z,1.73
2022-11-24T18:24:11.195Z,1.60
2022-11-24T18:26:40.451Z,1.70
2022-11-24T18:29:08.157Z,1.30
2022-11-24T18:31:36.288Z,1.55
2022-11-24T18:34:05.654Z,1.92
2022-11-24T18:36:33.937Z,1.48
2022-11-24T18:39:03.404Z,1.58
2022-11-24T18:41:31.920Z,1.20
2022-11-24T18:44:02.533Z,1.13
2022-11-24T18:46:30.213Z,1.40
2022-11-24T18:48:57.832Z,1.23
2022-11-24T18:51:25.478Z,1.17
2022-11-24T18:54:00.135Z,1.57
2022-11-24T18:56:28.062Z,1.50
2022-11-24T18:58:56.524Z,1.52
2022-11-24T19:01:27.763Z,1.55
2022-11-24T19:03:57.939Z,1.45
2022-11-24T19:06:32.072Z,2.07
2022-11-24T19:09:05.316Z,2.13
2022-11-24T19:11:35.895Z,1.42
2022-11-24T19:14:06.497Z,2.10
2022-11-24T19:16:35.098Z,1.77
2022-11-24T19:19:03.866Z,1.40
2022-11-24T19:21:33.437Z,1.40
2022-11-24T19:24:05.306Z,1.10
2022-11-24T19:26:37.462Z,1.33
2022-11-24T19:29:06.227Z,1.17
2022-11-24T19:31:35.098Z,1.30
2022-11-24T19:34:03.642Z,1.10
2022-11-24T19:36:31.727Z,1.10
2022-11-24T19:38:59.940Z,1.70
2022-11-24T19:41:30.220Z,1.25
2022-11-24T19:43:58.849Z,1.13
2022-11-24T19:46:29.631Z,1.27
2022-11-24T19:49:00.535Z,1.75
2022-11-24T19:51:33.192Z,1.60
2022-11-24T19:54:01.363Z,1.40
2022-11-24T19:56:31.466Z,1.30
2022-11-24T19:58:59.136Z,1.08
2022-11-24T20:01:30.129Z,1.42
2022-11-24T20:04:06.342Z,1.15
2022-11-24T20:06:37.419Z,1.73
2022-11-24T20:09:07.883Z,1.57
2022-11-24T20:11:36.183Z,1.35
2022-11-24T20:14:04.192Z,1.40
2022-11-24T20:16:33.818Z,1.42
2022-11-24T20:19:07.372Z,1.45
2022-11-24T20:21:36.417Z,1.40
2022-11-24T20:24:07.557Z,1.15
2022-11-24T20:26:38.249Z,1.75
2022-11-24T20:29:06.464Z,1.63
2022-11-24T20:31:39.891Z,1.88
2022-11-24T20:34:08.742Z,1.87
2022-11-24T20:36:38.653Z,1.50
2022-11-24T20:39:09.501Z,1.10
2022-11-24T20:41:39.042Z,1.23
2022-11-24T20:44:10.807Z,1.70
2022-11-24T20:46:39.698Z,1.47
2022-11-24T20:49:08.717Z,1.55
2022-11-24T20:51:42.071Z,1.25
2022-11-24T20:54:11.512Z,1.30
2022-11-24T20:56:41.493Z,1.60
2022-11-24T20:59:16.072Z,1.20
2022-11-24T21:01:46.065Z,1.20
2022-11-24T21:04:17.693Z,1.70
2022-11-24T21:06:45.992Z,1.30
2022-11-24T21:09:13.592Z,1.80
2022-11-24T21:11:41.514Z,1.33
2022-11-24T21:14:09.786Z,1.70
2022-11-24T21:16:39.495Z,1.35
2022-11-24T21:19:17.483Z,1.23
2022-11-24T21:21:47.648Z,1.35
2022-11-24T21:24:17.585Z,1.60
2022-11-24T21:26:51.862Z,1.27
2022-11-24T21:29:22.461Z,1.48
2022-11-24T21:31:50.329Z,1.75
2022-11-24T21:34:19.280Z,2.00
2022-11-24T21:36:47.372Z,2.57
2022-11-24T21:39:15.648Z,1.73
2022-11-24T21:41:43.741Z,1.55
2022-11-24T21:44:13.508Z,1.45
2022-11-24T21:46:45.925Z,1.33
2022-11-24T21:49:17.085Z,1.70
2022-11-24T21:51:44.616Z,2.00
2022-11-24T21:54:12.187Z,1.25
2022-11-24T21:56:39.713Z,1.20
2022-11-24T21:59:07.352Z,1.42
2022-11-24T22:01:35.016Z,1.73
2022-11-24T22:04:03.292Z,1.50
2022-11-24T22:06:32.101Z,1.80
2022-11-24T22:08:59.645Z,1.50
2022-11-24T22:11:27.149Z,1.65
2022-11-24T22:13:54.818Z,1.77
2022-11-24T22:16:24.287Z,1.35
2022-11-24T22:18:52.220Z,2.22
2022-11-24T22:21:33.601Z,1.50
2022-11-24T22:24:01.603Z,1.70
2022-11-24T22:26:30.049Z,1.70
2022-11-24T22:28:58.690Z,1.30
2022-11-24T22:31:28.588Z,1.25
2022-11-24T22:33:57.411Z,1.67
2022-11-24T22:36:28.903Z,1.52
2022-11-24T22:38:58.885Z,1.40
2022-11-24T22:41:26.477Z,1.40
2022-11-24T22:43:54.303Z,1.33
2022-11-24T22:46:26.448Z,0.90
2022-11-24T22:48:55.232Z,1.38
2022-11-24T22:51:26.369Z,1.27
2022-11-24T22:53:59.534Z,1.58
2022-11-24T22:56:32.549Z,0.93
2022-11-24T22:59:01.458Z,1.05
2022-11-24T23:01:29.911Z,1.23
2022-11-24T23:03:58.045Z,1.10
2022-11-24T23:06:28.800Z,1.67
2022-11-24T23:08:58.357Z,1.08
2022-11-24T23:11:37.980Z,1.23
2022-11-24T23:14:11.808Z,0.70
2022-11-24T23:16:39.659Z,1.07
2022-11-24T23:19:07.357Z,1.05
2022-11-24T23:21:38.569Z,0.90
2022-11-24T23:24:07.171Z,1.08
2022-11-24T23:26:37.200Z,1.10
2022-11-24T23:29:05.773Z,1.00
2022-11-24T23:31:33.460Z,1.30
2022-11-24T23:34:02.626Z,1.90
2022-11-24T23:36:31.110Z,1.10
2022-11-24T23:39:07.004Z,2.17
2022-11-24T23:41:34.912Z,2.00
2022-11-24T23:44:02.699Z,2.88
2022-11-24T23:46:30.552Z,1.40
2022-11-24T23:48:58.144Z,1.67
2022-11-24T23:51:28.212Z,1.45
2022-11-24T23:53:56.962Z,2.10
2022-11-24T23:56:33.258Z,0.98
2022-11-24T23:59:03.007Z,1.02
